createdAt,value
2019-06-10T00:01:16.296Z,100235.34
2019-06-10T00:03:51.446Z,100231.66
2019-06-10T00:06:22.662Z,100229.85
2019-06-10T00:08:56.036Z,100225.28
2019-06-10T00:11:28.515Z,100227.19
2019-06-10T00:14:02.491Z,100227.35
2019-06-10T00:16:34.727Z,100227.39
2019-06-10T00:19:09.574Z,100218.39
2019-06-10T00:21:41.319Z,100213.97
2019-06-10T00:24:13.635Z,100211.45
2019-06-10T00:26:45.892Z,100207.92
2019-06-10T00:29:18.172Z,100212.86
2019-06-10T00:31:50.953Z,100210.65
2019-06-10T00:34:23.548Z,100216.62
2019-06-10T00:36:55.807Z,100209.87
2019-06-10T00:39:28.035Z,100202.08
2019-06-10T00:42:03.180Z,100198.70
2019-06-10T00:44:34.140Z,100195.33
2019-06-10T00:47:08.324Z,100200.76
2019-06-10T00:49:41.003Z,100203.47
2019-06-10T00:52:14.065Z,100201.27
2019-06-10T00:54:46.521Z,100204.45
2019-06-10T00:57:20.769Z,100204.83
2019-06-10T00:59:52.851Z,100204.64
2019-06-10T01:02:25.148Z,100204.64
2019-06-10T01:04:57.703Z,100201.11
2019-06-10T01:07:31.150Z,100204.36
2019-06-10T01:10:04.756Z,100203.19
2019-06-10T01:12:37.060Z,100205.70
2019-06-10T01:15:12.125Z,100203.88
2019-06-10T01:17:43.968Z,100206.42
2019-06-10T01:20:16.406Z,100204.91
2019-06-10T01:22:48.772Z,100211.69
2019-06-10T01:25:21.677Z,100207.27
2019-06-10T01:27:54.087Z,100212.19
2019-06-10T01:30:27.407Z,100214.55
2019-06-10T01:33:01.152Z,100213.89
2019-06-10T01:35:33.671Z,100211.88
2019-06-10T01:38:06.028Z,100211.02
2019-06-10T01:40:38.294Z,100209.31
2019-06-10T01:43:13.304Z,100209.16
2019-06-10T01:45:44.908Z,100217.13
2019-06-10T01:48:17.920Z,100208.99
2019-06-10T01:50:51.292Z,100209.30
2019-06-10T01:53:23.957Z,100209.66
2019-06-10T01:55:56.237Z,100210.32
2019-06-10T01:58:28.597Z,100209.81
2019-06-10T02:01:05.299Z,100211.02
2019-06-10T02:03:37.939Z,100211.36
2019-06-10T02:06:15.671Z,100205.94
2019-06-10T02:08:44.524Z,100211.17
2019-06-10T02:11:18.725Z,100207.97
2019-06-10T02:13:51.506Z,100211.69
2019-06-10T02:16:24.274Z,100212.36
2019-06-10T02:19:00.420Z,100212.86
2019-06-10T02:21:31.133Z,100214.02
2019-06-10T02:24:03.700Z,100214.38
2019-06-10T02:26:36.009Z,100218.44
2019-06-10T02:29:08.373Z,100214.02
2019-06-10T02:31:43.316Z,100215.06
2019-06-10T02:34:19.649Z,100219.45
2019-06-10T02:36:49.075Z,100217.08
2019-06-10T02:39:28.110Z,100216.93
2019-06-10T02:41:56.963Z,100214.69
2019-06-10T02:44:33.094Z,100209.11
2019-06-10T02:47:03.608Z,100210.59
2019-06-10T02:49:52.609Z,100208.71
2019-06-10T02:52:28.710Z,100214.83
2019-06-10T02:54:54.055Z,100217.00
2019-06-10T02:57:34.830Z,100225.27
2019-06-10T03:00:04.267Z,100228.75
2019-06-10T03:02:36.506Z,100231.22
2019-06-10T03:05:08.706Z,100243.23
2019-06-10T03:07:44.012Z,100237.19
2019-06-10T03:10:16.314Z,100236.45
2019-06-10T03:12:49.037Z,100241.11
2019-06-10T03:15:24.537Z,100239.47
2019-06-10T03:17:55.270Z,100230.88
2019-06-10T03:20:28.400Z,100240.95
2019-06-10T03:23:02.915Z,100234.74
2019-06-10T03:25:34.792Z,100234.09
2019-06-10T03:28:06.977Z,100236.18
2019-06-10T03:30:52.334Z,100233.14
2019-06-10T03:33:13.868Z,100232.80
2019-06-10T03:35:46.448Z,100231.47
2019-06-10T03:38:18.708Z,100230.75
2019-06-10T03:40:52.468Z,100232.26
2019-06-10T03:43:26.352Z,100231.20
2019-06-10T03:45:58.942Z,100226.66
2019-06-10T03:48:32.811Z,100230.40
2019-06-10T03:51:04.985Z,100232.04
2019-06-10T03:53:37.231Z,100230.91
2019-06-10T03:56:09.474Z,100228.96
2019-06-10T03:58:42.992Z,100225.84
2019-06-10T04:01:15.657Z,100226.99
2019-06-10T04:03:47.909Z,100231.80
2019-06-10T04:06:21.476Z,100238.19
2019-06-10T04:08:54.590Z,100235.10
2019-06-10T04:11:27.367Z,100227.23
2019-06-10T04:14:02.371Z,100238.88
2019-06-10T04:16:34.828Z,100238.80
2019-06-10T04:19:06.995Z,100242.31
2019-06-10T04:21:39.276Z,100243.83
2019-06-10T04:24:12.869Z,100241.28
2019-06-10T04:26:45.196Z,100235.00
2019-06-10T04:29:17.918Z,100241.01
2019-06-10T04:31:52.241Z,100239.50
2019-06-10T04:34:28.229Z,100248.16
2019-06-10T04:36:58.165Z,100242.28
2019-06-10T04:39:30.400Z,100245.88
2019-06-10T04:42:02.678Z,100252.12
2019-06-10T04:44:34.948Z,100241.98
2019-06-10T04:47:07.205Z,100242.58
2019-06-10T04:49:39.375Z,100244.45
2019-06-10T04:52:12.244Z,100244.95
2019-06-10T04:54:44.688Z,100235.91
2019-06-10T04:57:16.925Z,100247.30
2019-06-10T04:59:49.190Z,100242.86
2019-06-10T05:02:23.790Z,100242.42
2019-06-10T05:04:56.929Z,100249.08
2019-06-10T05:07:34.221Z,100243.32
2019-06-10T05:10:04.847Z,100249.11
2019-06-10T05:12:37.021Z,100246.57
2019-06-10T05:15:09.387Z,100250.88
2019-06-10T05:17:43.718Z,100248.92
2019-06-10T05:20:15.653Z,100248.21
2019-06-10T05:22:47.927Z,100239.68
2019-06-10T05:25:22.420Z,100244.42
2019-06-10T05:27:54.065Z,100244.98
2019-06-10T05:30:27.799Z,100243.18
2019-06-10T05:33:02.601Z,100245.45
2019-06-10T05:35:34.265Z,100252.61
2019-06-10T05:38:06.449Z,100249.62
2019-06-10T05:40:38.637Z,100255.69
2019-06-10T05:43:12.925Z,100255.88
2019-06-10T05:45:44.860Z,100264.45
2019-06-10T05:48:17.106Z,100269.53
2019-06-10T05:51:00.090Z,100276.93
2019-06-10T05:53:25.041Z,100270.86
2019-06-10T05:55:57.207Z,100268.69
2019-06-10T05:58:29.422Z,100264.16
2019-06-10T06:01:02.762Z,100272.89
2019-06-10T06:03:36.992Z,100261.44
2019-06-10T06:06:09.146Z,100260.87
2019-06-10T06:08:42.836Z,100269.36
2019-06-10T06:11:15.714Z,100266.93
2019-06-10T06:13:47.954Z,100261.44
2019-06-10T06:16:20.147Z,100268.13
2019-06-10T06:18:52.811Z,100265.77
2019-06-10T06:21:31.505Z,100265.52
2019-06-10T06:23:59.216Z,100268.92
2019-06-10T06:26:36.499Z,100264.78
2019-06-10T06:29:05.427Z,100267.02
2019-06-10T06:31:37.756Z,100264.61
2019-06-10T06:34:13.896Z,100259.53
2019-06-10T06:36:45.105Z,100264.78
2019-06-10T06:39:17.368Z,100260.75
2019-06-10T06:41:49.641Z,100270.78
2019-06-10T06:44:23.379Z,100276.38
2019-06-10T06:46:55.757Z,100273.23
2019-06-10T06:49:27.970Z,100270.19
2019-06-10T06:52:02.753Z,100274.84
2019-06-10T06:54:36.063Z,100268.78
2019-06-10T06:57:08.157Z,100280.78
2019-06-10T06:59:43.050Z,100275.03
2019-06-10T07:02:14.323Z,100276.22
2019-06-10T07:04:46.579Z,100271.17
2019-06-10T07:07:22.248Z,100274.57
2019-06-10T07:09:54.536Z,100269.85
2019-06-10T07:12:28.085Z,100267.54
2019-06-10T07:15:04.330Z,100265.27
2019-06-10T07:17:37.918Z,100262.55
2019-06-10T07:20:12.522Z,100261.14
2019-06-10T07:22:46.717Z,100262.26
2019-06-10T07:25:18.299Z,100265.70
2019-06-10T07:27:52.707Z,100261.34
2019-06-10T07:30:24.633Z,100265.54
2019-06-10T07:32:56.880Z,100264.73
2019-06-10T07:35:29.143Z,100269.75
2019-06-10T07:38:03.038Z,100257.86
2019-06-10T07:40:36.553Z,100264.17
2019-06-10T07:43:09.335Z,100263.87
2019-06-10T07:45:45.872Z,100261.95
2019-06-10T07:48:15.541Z,100258.41
2019-06-10T07:50:47.738Z,100257.87
2019-06-10T07:53:22.120Z,100257.59
2019-06-10T07:55:54.993Z,100247.33
2019-06-10T07:58:27.188Z,100252.02
2019-06-10T08:00:59.507Z,100246.98
2019-06-10T08:03:34.375Z,100255.03
2019-06-10T08:06:06.212Z,100247.77
2019-06-10T08:08:38.834Z,100244.17
2019-06-10T08:11:13.703Z,100239.16
2019-06-10T08:13:47.989Z,100250.34
2019-06-10T08:16:20.444Z,100246.50
2019-06-10T08:19:20.912Z,100236.80
2019-06-10T08:21:26.603Z,100243.99
2019-06-10T08:23:58.795Z,100238.98
2019-06-10T08:26:32.504Z,100236.80
2019-06-10T08:29:05.012Z,100230.50
2019-06-10T08:31:37.281Z,100242.19
2019-06-10T08:34:09.551Z,100223.06
2019-06-10T08:36:46.337Z,100234.16
2019-06-10T08:39:16.107Z,100229.52
2019-06-10T08:41:49.266Z,100228.73
2019-06-10T08:44:23.069Z,100228.20
2019-06-10T08:46:55.711Z,100224.78
2019-06-10T08:49:27.995Z,100233.33
2019-06-10T08:52:02.776Z,100227.37
2019-06-10T08:54:34.174Z,100218.39
2019-06-10T08:57:06.355Z,100221.08
2019-06-10T08:59:40.001Z,100224.25
2019-06-10T09:02:13.581Z,100209.61
2019-06-10T09:04:48.786Z,100207.18
2019-06-10T09:07:19.813Z,100208.66
2019-06-10T09:09:53.963Z,100210.04
2019-06-10T09:12:32.477Z,100209.67
2019-06-10T09:15:03.700Z,100213.45
2019-06-10T09:17:35.191Z,100205.99
2019-06-10T09:20:09.532Z,100203.22
2019-06-10T09:22:45.415Z,100203.16
2019-06-10T09:25:16.546Z,100198.16
2019-06-10T09:27:51.504Z,100196.89
2019-06-10T09:30:23.792Z,100201.72
2019-06-10T09:32:57.548Z,100194.74
2019-06-10T09:35:32.267Z,100190.33
2019-06-10T09:38:03.922Z,100189.27
2019-06-10T09:40:59.937Z,100182.64
2019-06-10T09:43:24.489Z,100176.79
2019-06-10T09:45:56.966Z,100180.95
2019-06-10T09:48:29.261Z,100181.56
2019-06-10T09:51:02.546Z,100172.40
2019-06-10T09:53:43.003Z,100166.84
2019-06-10T09:56:09.022Z,100172.06
2019-06-10T09:58:44.682Z,100168.87
2019-06-10T10:01:15.238Z,100165.52
2019-06-10T10:03:53.476Z,100166.59
2019-06-10T10:06:23.719Z,100165.50
2019-06-10T10:08:58.172Z,100157.53
2019-06-10T10:11:31.961Z,100162.54
2019-06-10T10:14:07.930Z,100162.77
2019-06-10T10:16:39.092Z,100152.77
2019-06-10T10:19:13.061Z,100149.97
2019-06-10T10:21:49.541Z,100147.73
2019-06-10T10:24:19.141Z,100146.11
2019-06-10T10:26:57.158Z,100145.29
2019-06-10T10:29:26.343Z,100146.66
2019-06-10T10:31:58.590Z,100137.48
2019-06-10T10:34:33.219Z,100130.84
2019-06-10T10:37:04.805Z,100136.42
2019-06-10T10:39:37.097Z,100130.56
2019-06-10T10:42:09.374Z,100133.07
2019-06-10T10:44:46.199Z,100129.45
2019-06-10T10:47:15.543Z,100122.51
2019-06-10T10:49:49.091Z,100119.76
2019-06-10T10:52:22.453Z,100116.16
2019-06-10T10:54:55.615Z,100109.83
2019-06-10T10:57:28.006Z,100113.49
2019-06-10T11:00:02.932Z,100110.63
2019-06-10T11:02:34.154Z,100103.97
2019-06-10T11:05:07.961Z,100108.66
2019-06-10T11:07:42.261Z,100101.73
2019-06-10T11:10:14.249Z,100106.81
2019-06-10T11:12:47.031Z,100100.49
2019-06-10T11:15:23.203Z,100104.11
2019-06-10T11:17:56.566Z,100096.07
2019-06-10T11:20:29.626Z,100092.45
2019-06-10T11:23:02.921Z,100096.33
2019-06-10T11:25:35.459Z,100093.02
2019-06-10T11:28:07.707Z,100089.16
2019-06-10T11:30:42.479Z,100091.13
2019-06-10T11:33:13.855Z,100091.70
2019-06-10T11:35:46.731Z,100085.63
2019-06-10T11:38:19.092Z,100085.63
2019-06-10T11:40:55.946Z,100083.95
2019-06-10T11:43:25.400Z,100082.83
2019-06-10T11:46:03.541Z,100079.19
2019-06-10T11:48:32.837Z,100066.95
2019-06-10T11:51:05.349Z,100061.66
2019-06-10T11:53:37.807Z,100057.81
2019-06-10T11:56:10.071Z,100064.23
2019-06-10T11:58:42.743Z,100058.14
2019-06-10T12:01:15.809Z,100055.91
2019-06-10T12:03:48.448Z,100054.46
2019-06-10T12:06:22.870Z,100047.52
2019-06-10T12:08:58.330Z,100049.75
2019-06-10T12:11:29.839Z,100043.07
2019-06-10T12:14:04.461Z,100039.48
2019-06-10T12:17:20.682Z,100048.36
2019-06-10T12:19:12.530Z,100047.27
2019-06-10T12:21:44.385Z,100050.30
2019-06-10T12:24:16.650Z,100050.63
2019-06-10T12:26:49.820Z,100033.97
2019-06-10T12:29:22.598Z,100036.19
2019-06-10T12:31:58.427Z,100029.80
2019-06-10T12:34:28.961Z,100028.98
2019-06-10T12:37:09.483Z,100024.83
2019-06-10T12:39:35.172Z,100023.98
2019-06-10T12:42:10.850Z,100021.77
2019-06-10T12:44:42.926Z,100022.59
2019-06-10T12:47:15.304Z,100019.25
2019-06-10T12:49:47.579Z,100015.95
2019-06-10T12:52:19.839Z,100016.45
2019-06-10T12:54:53.257Z,100010.61
2019-06-10T12:57:25.648Z,100011.45
2019-06-10T12:59:58.437Z,100014.52
2019-06-10T13:02:34.436Z,100003.38
2019-06-10T13:05:08.706Z,100004.48
2019-06-10T13:07:43.011Z,100005.24
2019-06-10T13:10:18.249Z,99999.15
2019-06-10T13:12:53.091Z,99997.54
2019-06-10T13:15:24.463Z,100000.31
2019-06-10T13:17:58.150Z,99996.45
2019-06-10T13:20:32.159Z,99998.12
2019-06-10T13:23:17.369Z,99993.15
2019-06-10T13:25:53.470Z,99992.31
2019-06-10T13:28:13.600Z,99998.12
2019-06-10T13:30:45.893Z,100000.06
2019-06-10T13:33:18.185Z,99995.28
2019-06-10T13:35:50.439Z,99997.45
2019-06-10T13:38:25.667Z,99993.42
2019-06-10T13:40:57.934Z,99995.53
2019-06-10T13:43:33.818Z,99989.56
2019-06-10T13:46:07.421Z,99995.78
2019-06-10T13:48:39.289Z,99995.34
2019-06-10T13:51:14.871Z,99996.84
2019-06-10T13:53:46.375Z,99994.52
2019-06-10T13:56:39.710Z,99991.94
2019-06-10T13:58:54.103Z,99984.98
2019-06-10T14:01:26.261Z,99984.94
2019-06-10T14:03:58.514Z,99978.59
2019-06-10T14:06:40.541Z,99977.50
2019-06-10T14:09:11.237Z,99973.06
2019-06-10T14:11:42.435Z,99970.25
2019-06-10T14:14:18.061Z,99963.96
2019-06-10T14:16:49.042Z,99961.63
2019-06-10T14:19:23.173Z,99958.73
2019-06-10T14:21:55.634Z,99961.95
2019-06-10T14:24:27.893Z,99961.55
2019-06-10T14:27:04.301Z,99956.75
2019-06-10T14:29:35.085Z,99954.30
2019-06-10T14:32:07.500Z,99953.09
2019-06-10T14:34:41.968Z,99951.32
2019-06-10T14:37:15.637Z,99952.78
2019-06-10T14:39:48.659Z,99958.23
2019-06-10T14:42:23.007Z,99950.63
2019-06-10T14:44:54.885Z,99953.52
2019-06-10T14:47:27.081Z,99952.84
2019-06-10T14:49:59.378Z,99956.03
2019-06-10T14:52:32.087Z,99961.94
2019-06-10T14:55:07.085Z,99957.42
2019-06-10T14:57:39.400Z,99955.08
2019-06-10T15:00:15.658Z,99954.97
2019-06-10T15:02:45.762Z,99951.06
2019-06-10T15:05:19.539Z,99950.98
2019-06-10T15:07:52.820Z,99960.86
2019-06-10T15:10:25.184Z,99958.60
2019-06-10T15:12:57.428Z,99957.98
2019-06-10T15:15:29.610Z,99955.45
2019-06-10T15:18:02.925Z,99961.31
2019-06-10T15:20:35.788Z,99965.27
2019-06-10T15:23:08.602Z,99962.50
2019-06-10T15:25:49.983Z,99960.73
2019-06-10T15:28:16.349Z,99966.40
2019-06-10T15:30:48.829Z,99967.53
2019-06-10T15:33:23.587Z,99964.96
2019-06-10T15:35:55.084Z,99966.50
2019-06-10T15:38:27.449Z,99953.80
2019-06-10T15:40:59.713Z,99956.34
2019-06-10T15:43:33.077Z,99955.63
2019-06-10T15:46:05.441Z,99959.66
2019-06-10T15:48:37.672Z,99949.92
2019-06-10T15:51:13.460Z,99951.14
2019-06-10T15:53:44.985Z,99949.57
2019-06-10T15:56:35.392Z,99947.78
2019-06-10T15:58:52.178Z,99948.42
2019-06-10T16:01:27.165Z,99951.30
2019-06-10T16:03:58.516Z,99945.63
2019-06-10T16:06:32.925Z,99949.11
2019-06-10T16:09:07.145Z,99945.09
2019-06-10T16:11:40.476Z,99947.66
2019-06-10T16:14:14.763Z,99944.96
2019-06-10T16:16:48.161Z,99951.19
2019-06-10T16:19:21.277Z,99948.56
2019-06-10T16:21:54.130Z,99950.13
2019-06-10T16:24:27.582Z,99940.98
2019-06-10T16:27:00.154Z,99943.66
2019-06-10T16:29:33.401Z,99939.17
2019-06-10T16:32:05.836Z,99940.23
2019-06-10T16:34:39.609Z,99936.83
2019-06-10T16:37:12.971Z,99934.86
2019-06-10T16:39:45.218Z,99939.98
2019-06-10T16:42:17.492Z,99940.45
2019-06-10T16:44:49.712Z,99939.08
2019-06-10T16:47:25.438Z,99943.36
2019-06-10T16:49:55.938Z,99945.08
2019-06-10T16:52:28.201Z,99944.73
2019-06-10T16:55:02.258Z,99953.97
2019-06-10T16:57:35.595Z,99948.09
2019-06-10T17:00:11.981Z,99942.53
2019-06-10T17:02:42.753Z,99947.34
2019-06-10T17:05:15.147Z,99949.39
2019-06-10T17:07:47.406Z,99950.09
2019-06-10T17:10:19.810Z,99953.23
2019-06-10T17:12:53.641Z,99954.76
2019-06-10T17:15:27.229Z,99960.11
2019-06-10T17:17:59.524Z,99958.42
2019-06-10T17:20:34.164Z,99956.70
2019-06-10T17:23:30.377Z,99953.19
2019-06-10T17:25:58.999Z,99953.12
2019-06-10T17:28:36.322Z,99955.41
2019-06-10T17:31:05.217Z,99955.09
2019-06-10T17:33:37.464Z,99956.17
2019-06-10T17:36:09.628Z,99954.17
2019-06-10T17:38:42.962Z,99955.02
2019-06-10T17:41:15.439Z,99954.73
2019-06-10T17:43:47.615Z,99957.16
2019-06-10T17:46:21.169Z,99962.90
2019-06-10T17:48:53.712Z,99955.94
2019-06-10T17:51:27.511Z,99964.27
2019-06-10T17:54:02.287Z,99965.15
2019-06-10T17:56:36.163Z,99966.30
2019-06-10T17:59:07.653Z,99967.60
2019-06-10T18:01:39.882Z,99970.03
2019-06-10T18:04:13.019Z,99971.02
2019-06-10T18:06:45.303Z,99974.07
2019-06-10T18:09:17.548Z,99980.09
2019-06-10T18:11:49.818Z,99983.14
2019-06-10T18:14:22.945Z,99984.27
2019-06-10T18:16:56.002Z,99988.18
2019-06-10T18:19:28.314Z,99986.81
2019-06-10T18:22:02.893Z,99986.36
2019-06-10T18:24:34.939Z,99989.70
2019-06-10T18:27:07.250Z,99989.46
2019-06-10T18:29:39.560Z,99994.10
2019-06-10T18:32:12.441Z,99991.07
2019-06-10T18:34:44.980Z,99991.07
2019-06-10T18:37:17.230Z,99990.55
2019-06-10T18:39:49.463Z,99994.66
2019-06-10T18:42:23.673Z,99992.38
2019-06-10T18:44:55.908Z,99992.58
2019-06-10T18:47:28.086Z,99991.98
2019-06-10T18:50:00.331Z,99998.23
2019-06-10T18:52:32.707Z,99991.83
2019-06-10T18:55:08.011Z,99993.58
2019-06-10T18:57:42.630Z,99993.11
2019-06-10T19:00:15.628Z,100000.02
2019-06-10T19:02:47.882Z,100002.08
2019-06-10T19:05:22.288Z,100002.90
2019-06-10T19:07:54.144Z,99999.92
2019-06-10T19:10:26.504Z,100005.34
2019-06-10T19:12:58.767Z,99999.73
2019-06-10T19:15:31.839Z,99998.04
2019-06-10T19:18:04.369Z,99998.31
2019-06-10T19:20:38.718Z,100005.41
2019-06-10T19:23:12.658Z,100008.73
2019-06-10T19:25:45.169Z,100003.28
2019-06-10T19:28:17.686Z,100007.72
2019-06-10T19:30:49.959Z,100000.41
2019-06-10T19:33:23.535Z,100005.67
2019-06-10T19:35:56.194Z,100003.52
2019-06-10T19:38:28.455Z,100000.17
2019-06-10T19:41:02.663Z,99999.84
2019-06-10T19:43:36.496Z,100000.52
2019-06-10T19:46:08.674Z,99995.06
2019-06-10T19:48:44.581Z,99997.62
2019-06-10T19:51:14.776Z,99998.05
2019-06-10T19:53:47.042Z,100000.37
2019-06-10T19:56:19.475Z,99997.98
2019-06-10T19:58:52.988Z,99993.69
2019-06-10T20:01:25.344Z,99996.50
2019-06-10T20:03:57.615Z,100000.75
2019-06-10T20:06:32.104Z,99998.53
2019-06-10T20:09:05.397Z,99995.61
2019-06-10T20:11:38.360Z,99998.88
2019-06-10T20:14:12.835Z,99996.28
2019-06-10T20:16:45.996Z,99998.27
2019-06-10T20:19:18.373Z,99994.30
2019-06-10T20:21:50.706Z,99992.31
2019-06-10T20:24:22.902Z,99984.83
2019-06-10T20:26:55.328Z,99991.67
2019-06-10T20:29:27.990Z,99987.70
2019-06-10T20:32:00.166Z,99989.06
2019-06-10T20:34:32.516Z,99983.80
2019-06-10T20:37:04.937Z,99986.11
2019-06-10T20:39:38.115Z,99980.25
2019-06-10T20:42:12.886Z,99977.71
2019-06-10T20:44:47.892Z,99978.14
2019-06-10T20:47:23.034Z,99973.22
2019-06-10T20:49:56.512Z,99963.85
2019-06-10T20:52:29.812Z,99975.73
2019-06-10T20:55:03.278Z,99968.57
2019-06-10T20:57:50.923Z,99968.57
2019-06-10T21:00:22.244Z,99975.20
2019-06-10T21:02:48.629Z,99975.63
2019-06-10T21:05:22.531Z,99975.63
2019-06-10T21:07:57.991Z,99963.42
2019-06-10T21:10:39.805Z,99970.06
2019-06-10T21:13:13.389Z,99965.96
2019-06-10T21:15:49.980Z,99965.96
2019-06-10T21:18:22.554Z,99963.55
2019-06-10T21:20:56.396Z,99971.77
2019-06-10T21:23:29.931Z,99971.02
2019-06-10T21:26:03.297Z,99958.52
2019-06-10T21:28:36.783Z,99962.19
2019-06-10T21:31:10.259Z,99972.39
2019-06-10T21:33:45.896Z,99979.21
2019-06-10T21:36:18.508Z,99981.41
2019-06-10T21:38:55.389Z,99981.49
2019-06-10T21:41:26.682Z,99977.19
2019-06-10T21:44:02.788Z,99976.94
2019-06-10T21:46:34.901Z,99982.19
2019-06-10T21:49:08.180Z,99975.05
2019-06-10T21:51:45.314Z,99975.05
2019-06-10T21:54:16.435Z,99975.67
2019-06-10T21:56:52.389Z,99984.27
2019-06-10T21:59:24.819Z,99986.37
2019-06-10T22:01:58.176Z,99983.87
2019-06-10T22:04:32.660Z,99977.45
2019-06-10T22:07:06.418Z,99985.20
2019-06-10T22:09:42.409Z,99988.56
2019-06-10T22:12:15.189Z,99984.22
2019-06-10T22:14:48.480Z,99989.27
2019-06-10T22:17:21.823Z,99981.16
2019-06-10T22:19:56.427Z,99978.84
2019-06-10T22:22:32.239Z,99982.72
2019-06-10T22:25:07.276Z,99980.06
2019-06-10T22:27:42.061Z,99983.20
2019-06-10T22:30:17.247Z,99975.60
2019-06-10T22:32:54.909Z,99976.23
2019-06-10T22:35:25.695Z,99975.16
2019-06-10T22:37:58.987Z,99972.50
2019-06-10T22:40:32.844Z,99971.54
2019-06-10T22:43:08.073Z,99974.38
2019-06-10T22:45:42.425Z,99972.56
2019-06-10T22:48:15.907Z,99976.02
2019-06-10T22:50:49.192Z,99979.66
2019-06-10T22:53:23.163Z,99973.47
2019-06-10T22:55:58.112Z,99973.65
2019-06-10T22:58:32.757Z,99979.50
2019-06-10T23:01:06.085Z,99976.48
2019-06-10T23:03:39.390Z,99980.63
2019-06-10T23:06:12.682Z,99970.13
2019-06-10T23:08:45.963Z,99977.34
2019-06-10T23:11:19.252Z,99973.34
2019-06-10T23:13:54.707Z,99965.58
2019-06-10T23:16:27.568Z,99973.08
2019-06-10T23:19:02.991Z,99964.45
2019-06-10T23:21:35.812Z,99965.70
2019-06-10T23:24:09.111Z,99964.73
2019-06-10T23:26:42.576Z,99959.34
2019-06-10T23:29:15.993Z,99963.83
2019-06-10T23:31:54.435Z,99964.56
2019-06-10T23:34:24.576Z,99959.50
2019-06-10T23:36:58.746Z,99949.34
2019-06-10T23:39:33.458Z,99957.17
2019-06-10T23:42:07.219Z,99956.55
2019-06-10T23:44:40.429Z,99952.34
2019-06-10T23:47:13.621Z,99946.55
2019-06-10T23:49:46.862Z,99949.49
2019-06-10T23:52:22.139Z,99948.31
2019-06-10T23:54:55.894Z,99944.44
2019-06-10T23:57:29.250Z,99942.11
